East Brooklyn, Illinois
Current Conditions -  °F | °C
As of 8:35 AM on Friday 24 Oct 2014 (Local Time) from KC09 Reporting Station
Haze Haze  
Wind Chill: 47°   Ceiling: Unl
Heat Index: 47°   Visibility: 4mi
Dew Point: 47°   Wind: 0mph
Humidity: 100%   Direction: NA
Pressure: 30.07"   Gusts: NA
Location:  41.1746°N, 88.2765°W
Report Text: KC09 241335Z AUTO 00000KT 4SM BR CLR 08/08 A3007 RMK AO2 T00810081
Loading
Personal Weather Stations






























Interactive Weather Map
Tropical Storm Tracking
New forecast layout! Learn more

10-Day Weather Forecast

Advertisements
Track Severe Weather on mobile